SBCY/CGB METAR and TAF weather

Enter ICAO airport designator
Station Type Date Time Source
SBCY METAR 2019/12/11 12:00 UTC NOAA

SBCY 111200Z 31003KT CAVOK 27/21 Q1012


Station Type Date Time Source
SBCY Decoded METAR 2019/12/11 12:00 UTC NOAA

Cuiaba Aeroporto , Brazil (SBCY) 15-39S 056-06W 182M
Dec 11, 2019 - 07:00 AM EST / 2019.12.11 1200 UTC
Wind: from the NW (310 degrees) at 3 MPH (3 KT):0
Visibility: greater than 7 mile(s):0
Temperature: 80 F (27 C)
Dew Point: 69 F (21 C)
Relative Humidity: 69%
Pressure (altimeter): 29.88 in. Hg (1012 hPa)
ob: SBCY 111200Z 31003KT CAVOK 27/21 Q1012
cycle: 12

Station Type Date Time Source
SBCY TAF 2019/12/11 12:54 UTC NOAA

TAF TAF SBCY 110900Z 1112/1212 32005KT 9999 SCT020 TX31/1117Z TN23/1207Z PROB30 1119/1121 5000 TSRA BKN020 FEW025CB
RMK PHD

Example: see airport list